sensor_id;sensor_type;location;lat;lon;timestamp;temperature;humidity
12025;DHT22;6073;53.230;10.444;2022-12-29T00:01:34;7.80;99.90
12025;DHT22;6073;53.230;10.444;2022-12-29T00:04:00;7.80;99.90
12025;DHT22;6073;53.230;10.444;2022-12-29T00:06:26;7.80;99.90
12025;DHT22;6073;53.230;10.444;2022-12-29T00:08:52;7.80;99.90
12025;DHT22;6073;53.230;10.444;2022-12-29T00:11:22;7.80;99.90
12025;DHT22;6073;53.230;10.444;2022-12-29T00:13:48;7.80;99.90
12025;DHT22;6073;53.230;10.444;2022-12-29T00:16:34;7.90;99.90
12025;DHT22;6073;53.230;10.444;2022-12-29T00:19:00;7.90;99.90
12025;DHT22;6073;53.230;10.444;2022-12-29T00:21:26;7.90;99.90
12025;DHT22;6073;53.230;10.444;2022-12-29T00:24:19;7.90;99.90
12025;DHT22;6073;53.230;10.444;2022-12-29T00:29:48;7.90;99.90
12025;DHT22;6073;53.230;10.444;2022-12-29T00:32:32;7.90;99.90
12025;DHT22;6073;53.230;10.444;2022-12-29T00:35:43;7.90;99.90
12025;DHT22;6073;53.230;10.444;2022-12-29T00:38:10;8.00;99.90
12025;DHT22;6073;53.230;10.444;2022-12-29T00:40:55;8.00;99.90
12025;DHT22;6073;53.230;10.444;2022-12-29T00:43:39;8.00;99.90
12025;DHT22;6073;53.230;10.444;2022-12-29T00:46:23;7.90;99.90
12025;DHT22;6073;53.230;10.444;2022-12-29T00:48:49;7.90;99.90
12025;DHT22;6073;53.230;10.444;2022-12-29T00:51:50;8.00;99.90
12025;DHT22;6073;53.230;10.444;2022-12-29T00:54:16;8.00;99.90
12025;DHT22;6073;53.230;10.444;2022-12-29T00:56:42;8.00;99.90
12025;DHT22;6073;53.230;10.444;2022-12-29T00:59:10;8.10;99.90
12025;DHT22;6073;53.230;10.444;2022-12-29T01:01:37;8.10;99.90
12025;DHT22;6073;53.230;10.444;2022-12-29T01:04:03;8.10;99.90
12025;DHT22;6073;53.230;10.444;2022-12-29T01:06:29;8.10;99.90
12025;DHT22;6073;53.230;10.444;2022-12-29T01:08:54;8.10;99.90
12025;DHT22;6073;53.230;10.444;2022-12-29T01:11:39;8.10;99.90
12025;DHT22;6073;53.230;10.444;2022-12-29T01:14:05;8.00;99.90
12025;DHT22;6073;53.230;10.444;2022-12-29T01:16:31;8.10;99.90
12025;DHT22;6073;53.230;10.444;2022-12-29T01:18:57;8.10;99.90
12025;DHT22;6073;53.230;10.444;2022-12-29T01:21:23;8.10;99.90
12025;DHT22;6073;53.230;10.444;2022-12-29T01:23:48;8.20;99.90
12025;DHT22;6073;53.230;10.444;2022-12-29T01:26:16;8.20;99.90
12025;DHT22;6073;53.230;10.444;2022-12-29T01:28:42;8.20;99.90
12025;DHT22;6073;53.230;10.444;2022-12-29T01:31:12;8.20;99.90
12025;DHT22;6073;53.230;10.444;2022-12-29T01:33:38;8.20;99.90
12025;DHT22;6073;53.230;10.444;2022-12-29T01:36:06;8.20;99.90
12025;DHT22;6073;53.230;10.444;2022-12-29T01:38:33;8.30;99.90
12025;DHT22;6073;53.230;10.444;2022-12-29T01:40:59;8.20;99.90
12025;DHT22;6073;53.230;10.444;2022-12-29T01:46:28;8.40;99.90
12025;DHT22;6073;53.230;10.444;2022-12-29T01:51:25;8.50;99.90
12025;DHT22;6073;53.230;10.444;2022-12-29T01:53:52;8.50;99.90
12025;DHT22;6073;53.230;10.444;2022-12-29T01:56:20;8.60;99.90
12025;DHT22;6073;53.230;10.444;2022-12-29T01:58:49;8.60;99.90
12025;DHT22;6073;53.230;10.444;2022-12-29T02:01:19;8.60;99.90
12025;DHT22;6073;53.230;10.444;2022-12-29T02:03:45;8.60;99.90
12025;DHT22;6073;53.230;10.444;2022-12-29T02:06:16;8.60;99.90
12025;DHT22;6073;53.230;10.444;2022-12-29T02:08:45;8.60;99.90
12025;DHT22;6073;53.230;10.444;2022-12-29T02:11:11;8.60;99.90
12025;DHT22;6073;53.230;10.444;2022-12-29T02:13:37;8.70;99.90
12025;DHT22;6073;53.230;10.444;2022-12-29T02:16:18;8.70;99.90
12025;DHT22;6073;53.230;10.444;2022-12-29T02:19:02;8.60;99.90
12025;DHT22;6073;53.230;10.444;2022-12-29T02:41:25;8.90;99.90
12025;DHT22;6073;53.230;10.444;2022-12-29T02:44:02;9.00;99.90
12025;DHT22;6073;53.230;10.444;2022-12-29T02:49:19;9.00;99.90
12025;DHT22;6073;53.230;10.444;2022-12-29T02:51:59;9.00;99.90
12025;DHT22;6073;53.230;10.444;2022-12-29T02:54:26;9.00;99.90
12025;DHT22;6073;53.230;10.444;2022-12-29T02:57:12;9.00;99.90
12025;DHT22;6073;53.230;10.444;2022-12-29T02:59:39;8.90;99.90
12025;DHT22;6073;53.230;10.444;2022-12-29T03:02:31;9.00;99.90
12025;DHT22;6073;53.230;10.444;2022-12-29T03:10:41;9.10;99.90
12025;DHT22;6073;53.230;10.444;2022-12-29T03:13:39;9.10;99.90
12025;DHT22;6073;53.230;10.444;2022-12-29T03:16:53;9.00;99.90
12025;DHT22;6073;53.230;10.444;2022-12-29T03:19:23;9.00;99.90
12025;DHT22;6073;53.230;10.444;2022-12-29T03:22:06;9.00;99.90
12025;DHT22;6073;53.230;10.444;2022-12-29T03:24:55;9.00;99.90
12025;DHT22;6073;53.230;10.444;2022-12-29T03:27:29;9.10;99.90
12025;DHT22;6073;53.230;10.444;2022-12-29T03:29:59;9.10;99.90
12025;DHT22;6073;53.230;10.444;2022-12-29T03:32:31;9.10;99.90
12025;DHT22;6073;53.230;10.444;2022-12-29T03:34:58;9.00;99.90
12025;DHT22;6073;53.230;10.444;2022-12-29T03:37:29;9.00;99.90
12025;DHT22;6073;53.230;10.444;2022-12-29T03:39:56;9.00;99.90
12025;DHT22;6073;53.230;10.444;2022-12-29T03:42:25;9.10;99.90
12025;DHT22;6073;53.230;10.444;2022-12-29T03:44:56;9.10;99.90
12025;DHT22;6073;53.230;10.444;2022-12-29T03:47:23;9.10;99.90
12025;DHT22;6073;53.230;10.444;2022-12-29T03:49:49;9.20;99.90
12025;DHT22;6073;53.230;10.444;2022-12-29T03:52:15;9.20;99.90
12025;DHT22;6073;53.230;10.444;2022-12-29T03:54:40;9.20;99.90
12025;DHT22;6073;53.230;10.444;2022-12-29T03:57:06;9.30;99.90
12025;DHT22;6073;53.230;10.444;2022-12-29T03:59:32;9.20;99.90
12025;DHT22;6073;53.230;10.444;2022-12-29T04:01:57;9.20;99.90
12025;DHT22;6073;53.230;10.444;2022-12-29T04:04:23;9.10;99.90
12025;DHT22;6073;53.230;10.444;2022-12-29T04:06:48;9.00;99.90
12025;DHT22;6073;53.230;10.444;2022-12-29T04:09:14;9.00;99.90
12025;DHT22;6073;53.230;10.444;2022-12-29T04:11:39;8.90;99.90
12025;DHT22;6073;53.230;10.444;2022-12-29T04:14:05;9.00;99.90
12025;DHT22;6073;53.230;10.444;2022-12-29T04:16:31;9.00;99.90
12025;DHT22;6073;53.230;10.444;2022-12-29T04:18:56;9.00;99.90
12025;DHT22;6073;53.230;10.444;2022-12-29T04:21:22;9.00;99.90
12025;DHT22;6073;53.230;10.444;2022-12-29T04:23:47;9.00;99.90
12025;DHT22;6073;53.230;10.444;2022-12-29T04:26:13;9.10;99.90
12025;DHT22;6073;53.230;10.444;2022-12-29T04:28:38;9.20;99.90
12025;DHT22;6073;53.230;10.444;2022-12-29T04:31:04;9.30;99.90
12025;DHT22;6073;53.230;10.444;2022-12-29T04:33:30;9.20;99.90
12025;DHT22;6073;53.230;10.444;2022-12-29T04:35:56;9.10;99.90
12025;DHT22;6073;53.230;10.444;2022-12-29T04:38:23;9.10;99.90
12025;DHT22;6073;53.230;10.444;2022-12-29T04:40:49;9.20;99.90
12025;DHT22;6073;53.230;10.444;2022-12-29T04:43:14;9.10;99.90
12025;DHT22;6073;53.230;10.444;2022-12-29T04:45:44;9.10;99.90
12025;DHT22;6073;53.230;10.444;2022-12-29T04:48:10;9.20;99.90
12025;DHT22;6073;53.230;10.444;2022-12-29T04:50:36;9.10;99.90
12025;DHT22;6073;53.230;10.444;2022-12-29T04:53:01;9.20;99.90
12025;DHT22;6073;53.230;10.444;2022-12-29T04:55:27;9.20;99.90
12025;DHT22;6073;53.230;10.444;2022-12-29T04:57:52;9.20;99.90
12025;DHT22;6073;53.230;10.444;2022-12-29T05:00:18;9.20;99.90
12025;DHT22;6073;53.230;10.444;2022-12-29T05:02:44;9.20;99.90
12025;DHT22;6073;53.230;10.444;2022-12-29T05:05:10;9.20;99.90
12025;DHT22;6073;53.230;10.444;2022-12-29T05:07:35;9.20;99.90
12025;DHT22;6073;53.230;10.444;2022-12-29T05:10:01;9.20;99.90
12025;DHT22;6073;53.230;10.444;2022-12-29T05:12:30;9.10;99.90
12025;DHT22;6073;53.230;10.444;2022-12-29T05:14:56;9.10;99.90
12025;DHT22;6073;53.230;10.444;2022-12-29T05:17:21;9.20;99.90
12025;DHT22;6073;53.230;10.444;2022-12-29T05:19:47;9.20;99.90
12025;DHT22;6073;53.230;10.444;2022-12-29T05:22:12;9.20;99.90
12025;DHT22;6073;53.230;10.444;2022-12-29T05:24:38;9.30;99.90
12025;DHT22;6073;53.230;10.444;2022-12-29T05:27:03;9.20;99.90
12025;DHT22;6073;53.230;10.444;2022-12-29T05:29:29;9.30;99.90
12025;DHT22;6073;53.230;10.444;2022-12-29T05:31:54;9.20;99.90
12025;DHT22;6073;53.230;10.444;2022-12-29T05:34:20;9.20;99.90
12025;DHT22;6073;53.230;10.444;2022-12-29T05:36:45;9.30;99.90
12025;DHT22;6073;53.230;10.444;2022-12-29T05:39:11;9.30;99.90
12025;DHT22;6073;53.230;10.444;2022-12-29T05:41:36;9.20;99.90
12025;DHT22;6073;53.230;10.444;2022-12-29T05:44:02;9.20;99.90
12025;DHT22;6073;53.230;10.444;2022-12-29T05:46:28;9.20;99.90
12025;DHT22;6073;53.230;10.444;2022-12-29T05:48:54;9.20;99.90
12025;DHT22;6073;53.230;10.444;2022-12-29T05:51:19;9.20;99.90
12025;DHT22;6073;53.230;10.444;2022-12-29T05:53:45;9.10;99.90
12025;DHT22;6073;53.230;10.444;2022-12-29T05:56:10;9.10;99.90
12025;DHT22;6073;53.230;10.444;2022-12-29T05:58:36;9.10;99.90
12025;DHT22;6073;53.230;10.444;2022-12-29T06:01:01;9.10;99.90
12025;DHT22;6073;53.230;10.444;2022-12-29T06:03:27;9.00;99.90
12025;DHT22;6073;53.230;10.444;2022-12-29T06:05:52;9.10;99.90
12025;DHT22;6073;53.230;10.444;2022-12-29T06:08:18;9.10;99.90
12025;DHT22;6073;53.230;10.444;2022-12-29T06:10:44;9.10;99.90
12025;DHT22;6073;53.230;10.444;2022-12-29T06:13:09;9.20;99.90
12025;DHT22;6073;53.230;10.444;2022-12-29T06:15:35;9.10;99.90
12025;DHT22;6073;53.230;10.444;2022-12-29T06:18:01;9.00;99.90
12025;DHT22;6073;53.230;10.444;2022-12-29T06:20:27;9.10;99.90
12025;DHT22;6073;53.230;10.444;2022-12-29T06:22:52;9.10;99.90
12025;DHT22;6073;53.230;10.444;2022-12-29T06:25:18;9.10;99.90
12025;DHT22;6073;53.230;10.444;2022-12-29T06:27:43;9.10;99.90
12025;DHT22;6073;53.230;10.444;2022-12-29T06:30:10;9.00;99.90
12025;DHT22;6073;53.230;10.444;2022-12-29T06:32:36;9.00;99.90
12025;DHT22;6073;53.230;10.444;2022-12-29T06:35:03;9.00;99.90
12025;DHT22;6073;53.230;10.444;2022-12-29T06:37:29;8.90;99.90
12025;DHT22;6073;53.230;10.444;2022-12-29T06:42:23;9.00;99.90
12025;DHT22;6073;53.230;10.444;2022-12-29T06:44:48;8.90;99.90
12025;DHT22;6073;53.230;10.444;2022-12-29T06:47:14;8.90;99.90
12025;DHT22;6073;53.230;10.444;2022-12-29T06:49:40;9.00;99.90
12025;DHT22;6073;53.230;10.444;2022-12-29T06:52:05;9.10;99.90
12025;DHT22;6073;53.230;10.444;2022-12-29T06:54:31;9.20;99.90
12025;DHT22;6073;53.230;10.444;2022-12-29T06:56:57;9.20;99.90
12025;DHT22;6073;53.230;10.444;2022-12-29T06:59:23;9.20;99.90
12025;DHT22;6073;53.230;10.444;2022-12-29T07:01:49;9.30;99.90
12025;DHT22;6073;53.230;10.444;2022-12-29T07:04:15;9.20;99.90
12025;DHT22;6073;53.230;10.444;2022-12-29T07:06:40;9.20;99.90
12025;DHT22;6073;53.230;10.444;2022-12-29T07:09:07;9.30;99.90
12025;DHT22;6073;53.230;10.444;2022-12-29T07:11:33;9.30;99.90
12025;DHT22;6073;53.230;10.444;2022-12-29T07:13:59;9.30;99.90
12025;DHT22;6073;53.230;10.444;2022-12-29T07:16:24;9.40;99.90
12025;DHT22;6073;53.230;10.444;2022-12-29T07:18:50;9.40;99.90
12025;DHT22;6073;53.230;10.444;2022-12-29T07:21:17;9.40;99.90
12025;DHT22;6073;53.230;10.444;2022-12-29T07:23:42;9.40;99.90
12025;DHT22;6073;53.230;10.444;2022-12-29T07:26:11;9.50;99.90
12025;DHT22;6073;53.230;10.444;2022-12-29T07:28:37;9.50;99.90
12025;DHT22;6073;53.230;10.444;2022-12-29T07:31:13;9.60;99.90
12025;DHT22;6073;53.230;10.444;2022-12-29T07:33:39;9.60;99.90
12025;DHT22;6073;53.230;10.444;2022-12-29T07:36:05;9.50;99.90
12025;DHT22;6073;53.230;10.444;2022-12-29T07:38:30;9.50;99.90
12025;DHT22;6073;53.230;10.444;2022-12-29T07:40:57;9.60;99.90
12025;DHT22;6073;53.230;10.444;2022-12-29T07:43:23;9.70;99.90
12025;DHT22;6073;53.230;10.444;2022-12-29T07:45:49;9.70;99.90
12025;DHT22;6073;53.230;10.444;2022-12-29T07:48:14;9.70;99.90
12025;DHT22;6073;53.230;10.444;2022-12-29T07:50:40;9.70;99.90
12025;DHT22;6073;53.230;10.444;2022-12-29T07:53:05;9.70;99.90
12025;DHT22;6073;53.230;10.444;2022-12-29T07:55:31;9.60;99.90
12025;DHT22;6073;53.230;10.444;2022-12-29T07:57:56;9.60;99.90
12025;DHT22;6073;53.230;10.444;2022-12-29T08:00:22;9.60;99.90
12025;DHT22;6073;53.230;10.444;2022-12-29T08:02:48;9.50;99.90
12025;DHT22;6073;53.230;10.444;2022-12-29T08:05:14;9.50;99.90
12025;DHT22;6073;53.230;10.444;2022-12-29T08:07:42;9.50;99.90
12025;DHT22;6073;53.230;10.444;2022-12-29T08:10:08;9.50;99.90
12025;DHT22;6073;53.230;10.444;2022-12-29T08:12:34;9.50;99.90
12025;DHT22;6073;53.230;10.444;2022-12-29T08:14:59;9.40;99.90
12025;DHT22;6073;53.230;10.444;2022-12-29T08:17:25;9.40;99.90
12025;DHT22;6073;53.230;10.444;2022-12-29T08:19:50;9.40;99.90
12025;DHT22;6073;53.230;10.444;2022-12-29T08:22:16;9.40;99.90
12025;DHT22;6073;53.230;10.444;2022-12-29T08:24:41;9.40;99.90
12025;DHT22;6073;53.230;10.444;2022-12-29T08:27:07;9.40;99.90
12025;DHT22;6073;53.230;10.444;2022-12-29T08:29:32;9.30;99.90
12025;DHT22;6073;53.230;10.444;2022-12-29T08:31:58;9.30;99.90
12025;DHT22;6073;53.230;10.444;2022-12-29T08:34:23;9.30;99.90
12025;DHT22;6073;53.230;10.444;2022-12-29T08:36:49;9.30;99.90
12025;DHT22;6073;53.230;10.444;2022-12-29T08:39:14;9.30;99.90
12025;DHT22;6073;53.230;10.444;2022-12-29T08:41:40;9.30;99.90
12025;DHT22;6073;53.230;10.444;2022-12-29T08:44:06;9.40;99.90
12025;DHT22;6073;53.230;10.444;2022-12-29T08:46:31;9.40;99.90
12025;DHT22;6073;53.230;10.444;2022-12-29T08:48:57;9.50;99.90
12025;DHT22;6073;53.230;10.444;2022-12-29T08:51:23;9.50;99.90
12025;DHT22;6073;53.230;10.444;2022-12-29T08:53:48;9.60;99.90
12025;DHT22;6073;53.230;10.444;2022-12-29T08:56:14;9.60;99.90
12025;DHT22;6073;53.230;10.444;2022-12-29T08:58:39;9.50;99.90
12025;DHT22;6073;53.230;10.444;2022-12-29T09:01:06;9.50;99.90
12025;DHT22;6073;53.230;10.444;2022-12-29T09:03:31;9.60;99.90
12025;DHT22;6073;53.230;10.444;2022-12-29T09:05:57;9.70;99.90
12025;DHT22;6073;53.230;10.444;2022-12-29T09:08:23;9.80;99.90
12025;DHT22;6073;53.230;10.444;2022-12-29T09:10:49;9.80;99.90
12025;DHT22;6073;53.230;10.444;2022-12-29T09:13:15;9.90;99.90
12025;DHT22;6073;53.230;10.444;2022-12-29T09:15:42;10.10;99.90
12025;DHT22;6073;53.230;10.444;2022-12-29T09:18:09;10.20;99.90
12025;DHT22;6073;53.230;10.444;2022-12-29T09:20:35;10.00;99.90
12025;DHT22;6073;53.230;10.444;2022-12-29T09:23:01;10.10;99.90
12025;DHT22;6073;53.230;10.444;2022-12-29T09:25:27;10.30;99.90
12025;DHT22;6073;53.230;10.444;2022-12-29T09:27:53;10.40;99.90
12025;DHT22;6073;53.230;10.444;2022-12-29T09:30:20;10.30;99.90
12025;DHT22;6073;53.230;10.444;2022-12-29T09:32:46;10.10;99.90
12025;DHT22;6073;53.230;10.444;2022-12-29T09:35:13;10.00;99.90
12025;DHT22;6073;53.230;10.444;2022-12-29T09:37:38;9.90;99.90
12025;DHT22;6073;53.230;10.444;2022-12-29T09:40:05;9.90;99.90
12025;DHT22;6073;53.230;10.444;2022-12-29T09:45:15;9.80;99.90
12025;DHT22;6073;53.230;10.444;2022-12-29T09:47:42;9.80;99.90
12025;DHT22;6073;53.230;10.444;2022-12-29T09:50:30;9.80;99.90
12025;DHT22;6073;53.230;10.444;2022-12-29T09:53:14;9.80;99.90
12025;DHT22;6073;53.230;10.444;2022-12-29T09:55:49;9.90;99.90
12025;DHT22;6073;53.230;10.444;2022-12-29T09:58:25;10.00;99.90
12025;DHT22;6073;53.230;10.444;2022-12-29T10:01:05;10.20;99.90
12025;DHT22;6073;53.230;10.444;2022-12-29T10:03:49;10.20;99.90
12025;DHT22;6073;53.230;10.444;2022-12-29T10:09:33;10.30;99.90
12025;DHT22;6073;53.230;10.444;2022-12-29T10:18:34;10.30;99.90
12025;DHT22;6073;53.230;10.444;2022-12-29T10:23:38;10.20;99.90
12025;DHT22;6073;53.230;10.444;2022-12-29T10:26:15;10.20;99.90
12025;DHT22;6073;53.230;10.444;2022-12-29T10:29:04;10.10;99.90
12025;DHT22;6073;53.230;10.444;2022-12-29T10:31:40;10.00;99.90
12025;DHT22;6073;53.230;10.444;2022-12-29T10:34:15;10.10;99.90
12025;DHT22;6073;53.230;10.444;2022-12-29T10:36:48;10.10;99.90
12025;DHT22;6073;53.230;10.444;2022-12-29T10:42:12;10.20;99.90
12025;DHT22;6073;53.230;10.444;2022-12-29T10:44:35;10.30;99.90
12025;DHT22;6073;53.230;10.444;2022-12-29T10:47:05;10.30;99.90
12025;DHT22;6073;53.230;10.444;2022-12-29T10:49:35;10.50;99.90
12025;DHT22;6073;53.230;10.444;2022-12-29T10:52:03;10.50;99.90
12025;DHT22;6073;53.230;10.444;2022-12-29T10:54:31;10.50;99.90
12025;DHT22;6073;53.230;10.444;2022-12-29T10:57:05;10.50;99.90
12025;DHT22;6073;53.230;10.444;2022-12-29T10:59:35;10.40;99.90
12025;DHT22;6073;53.230;10.444;2022-12-29T11:07:08;10.60;99.90
12025;DHT22;6073;53.230;10.444;2022-12-29T11:09:36;10.60;99.90
12025;DHT22;6073;53.230;10.444;2022-12-29T11:12:23;10.70;99.90
12025;DHT22;6073;53.230;10.444;2022-12-29T11:15:05;10.70;99.90
12025;DHT22;6073;53.230;10.444;2022-12-29T11:17:51;10.80;99.90
12025;DHT22;6073;53.230;10.444;2022-12-29T11:23:02;10.70;99.90
12025;DHT22;6073;53.230;10.444;2022-12-29T11:25:28;10.70;99.90
12025;DHT22;6073;53.230;10.444;2022-12-29T11:28:02;10.70;99.90
12025;DHT22;6073;53.230;10.444;2022-12-29T11:30:31;10.70;99.90
12025;DHT22;6073;53.230;10.444;2022-12-29T11:32:57;10.70;99.90
12025;DHT22;6073;53.230;10.444;2022-12-29T11:35:32;10.70;99.90
12025;DHT22;6073;53.230;10.444;2022-12-29T11:37:58;10.70;99.90
12025;DHT22;6073;53.230;10.444;2022-12-29T11:40:25;10.70;99.90
12025;DHT22;6073;53.230;10.444;2022-12-29T11:42:53;10.70;99.90
12025;DHT22;6073;53.230;10.444;2022-12-29T11:45:25;10.80;99.90
12025;DHT22;6073;53.230;10.444;2022-12-29T11:48:21;10.70;99.90
12025;DHT22;6073;53.230;10.444;2022-12-29T11:50:51;10.70;99.90
12025;DHT22;6073;53.230;10.444;2022-12-29T11:56:00;10.70;99.90
12025;DHT22;6073;53.230;10.444;2022-12-29T11:58:31;10.60;99.90
12025;DHT22;6073;53.230;10.444;2022-12-29T12:01:05;10.60;99.90
12025;DHT22;6073;53.230;10.444;2022-12-29T12:03:35;10.70;99.90
12025;DHT22;6073;53.230;10.444;2022-12-29T12:06:03;10.70;99.90
12025;DHT22;6073;53.230;10.444;2022-12-29T12:08:46;10.60;99.90
12025;DHT22;6073;53.230;10.444;2022-12-29T12:11:14;10.70;99.90
12025;DHT22;6073;53.230;10.444;2022-12-29T12:13:47;10.70;99.90
12025;DHT22;6073;53.230;10.444;2022-12-29T12:16:20;10.90;99.90
12025;DHT22;6073;53.230;10.444;2022-12-29T12:18:50;10.90;99.90
12025;DHT22;6073;53.230;10.444;2022-12-29T12:21:40;10.90;99.90
12025;DHT22;6073;53.230;10.444;2022-12-29T12:26:55;10.90;99.90
12025;DHT22;6073;53.230;10.444;2022-12-29T12:29:35;10.90;99.90
12025;DHT22;6073;53.230;10.444;2022-12-29T12:32:16;11.00;99.90
12025;DHT22;6073;53.230;10.444;2022-12-29T12:34:44;11.00;99.90
12025;DHT22;6073;53.230;10.444;2022-12-29T12:48:07;10.90;99.90
12025;DHT22;6073;53.230;10.444;2022-12-29T12:50:49;10.80;99.90
12025;DHT22;6073;53.230;10.444;2022-12-29T12:56:48;10.90;99.90
12025;DHT22;6073;53.230;10.444;2022-12-29T13:02:28;11.00;99.90
12025;DHT22;6073;53.230;10.444;2022-12-29T13:08:03;11.00;99.90
12025;DHT22;6073;53.230;10.444;2022-12-29T13:10:42;10.90;99.90
12025;DHT22;6073;53.230;10.444;2022-12-29T13:19:25;11.00;99.90
12025;DHT22;6073;53.230;10.444;2022-12-29T13:22:04;11.00;99.90
12025;DHT22;6073;53.230;10.444;2022-12-29T13:25:05;11.00;99.90
12025;DHT22;6073;53.230;10.444;2022-12-29T13:27:42;11.00;99.90
12025;DHT22;6073;53.230;10.444;2022-12-29T13:30:20;11.00;99.90
12025;DHT22;6073;53.230;10.444;2022-12-29T13:32:55;11.00;99.90
12025;DHT22;6073;53.230;10.444;2022-12-29T13:40:45;10.90;99.90
12025;DHT22;6073;53.230;10.444;2022-12-29T13:43:15;10.80;99.90
12025;DHT22;6073;53.230;10.444;2022-12-29T13:45:43;10.80;99.90
12025;DHT22;6073;53.230;10.444;2022-12-29T13:48:20;10.80;99.90
12025;DHT22;6073;53.230;10.444;2022-12-29T13:50:52;10.80;99.90
12025;DHT22;6073;53.230;10.444;2022-12-29T13:53:41;10.80;99.90
12025;DHT22;6073;53.230;10.444;2022-12-29T13:56:15;10.80;99.90
12025;DHT22;6073;53.230;10.444;2022-12-29T14:01:58;10.80;99.90
12025;DHT22;6073;53.230;10.444;2022-12-29T14:04:28;10.80;99.90
12025;DHT22;6073;53.230;10.444;2022-12-29T14:09:47;10.70;99.90
12025;DHT22;6073;53.230;10.444;2022-12-29T14:12:39;10.80;99.90
12025;DHT22;6073;53.230;10.444;2022-12-29T14:17:39;10.90;99.90
12025;DHT22;6073;53.230;10.444;2022-12-29T14:20:15;10.90;99.90
12025;DHT22;6073;53.230;10.444;2022-12-29T14:23:39;10.90;99.90
12025;DHT22;6073;53.230;10.444;2022-12-29T14:28:26;10.80;99.90
12025;DHT22;6073;53.230;10.444;2022-12-29T14:30:54;10.70;99.90
12025;DHT22;6073;53.230;10.444;2022-12-29T14:33:21;10.70;99.90
12025;DHT22;6073;53.230;10.444;2022-12-29T14:35:48;10.70;99.90
12025;DHT22;6073;53.230;10.444;2022-12-29T14:38:23;10.60;99.90
12025;DHT22;6073;53.230;10.444;2022-12-29T14:40:49;10.50;99.90
12025;DHT22;6073;53.230;10.444;2022-12-29T14:43:21;10.40;99.90
12025;DHT22;6073;53.230;10.444;2022-12-29T14:46:02;10.40;99.90
12025;DHT22;6073;53.230;10.444;2022-12-29T14:48:37;10.40;99.90
12025;DHT22;6073;53.230;10.444;2022-12-29T14:51:26;10.40;99.90
12025;DHT22;6073;53.230;10.444;2022-12-29T14:53:52;10.40;99.90
12025;DHT22;6073;53.230;10.444;2022-12-29T14:56:23;10.30;99.90
12025;DHT22;6073;53.230;10.444;2022-12-29T14:59:10;10.30;99.90
12025;DHT22;6073;53.230;10.444;2022-12-29T15:01:46;10.20;99.90
12025;DHT22;6073;53.230;10.444;2022-12-29T15:04:22;10.20;99.90
12025;DHT22;6073;53.230;10.444;2022-12-29T15:06:50;10.20;99.90
12025;DHT22;6073;53.230;10.444;2022-12-29T15:09:45;10.00;99.90
12025;DHT22;6073;53.230;10.444;2022-12-29T15:12:28;9.80;99.90
12025;DHT22;6073;53.230;10.444;2022-12-29T15:14:58;9.70;99.90
12025;DHT22;6073;53.230;10.444;2022-12-29T15:17:30;9.60;99.90
12025;DHT22;6073;53.230;10.444;2022-12-29T15:19:58;9.50;99.90
12025;DHT22;6073;53.230;10.444;2022-12-29T15:22:25;9.50;99.90
12025;DHT22;6073;53.230;10.444;2022-12-29T15:24:52;9.30;99.90
12025;DHT22;6073;53.230;10.444;2022-12-29T15:27:25;9.30;99.90
12025;DHT22;6073;53.230;10.444;2022-12-29T15:30:02;9.30;99.90
12025;DHT22;6073;53.230;10.444;2022-12-29T15:32:39;9.20;99.90
12025;DHT22;6073;53.230;10.444;2022-12-29T15:35:24;9.20;99.90
12025;DHT22;6073;53.230;10.444;2022-12-29T15:37:50;9.20;99.90
12025;DHT22;6073;53.230;10.444;2022-12-29T15:40:29;9.10;99.90
12025;DHT22;6073;53.230;10.444;2022-12-29T15:43:13;9.00;99.90
12025;DHT22;6073;53.230;10.444;2022-12-29T15:45:43;8.90;99.90
12025;DHT22;6073;53.230;10.444;2022-12-29T15:48:20;8.90;99.90
12025;DHT22;6073;53.230;10.444;2022-12-29T15:50:46;9.00;99.90
12025;DHT22;6073;53.230;10.444;2022-12-29T15:53:19;9.00;99.90
12025;DHT22;6073;53.230;10.444;2022-12-29T15:55:50;9.20;99.90
12025;DHT22;6073;53.230;10.444;2022-12-29T15:58:40;9.10;99.90
12025;DHT22;6073;53.230;10.444;2022-12-29T16:01:17;9.10;99.90
12025;DHT22;6073;53.230;10.444;2022-12-29T16:03:43;9.10;99.90
12025;DHT22;6073;53.230;10.444;2022-12-29T16:06:29;8.90;99.90
12025;DHT22;6073;53.230;10.444;2022-12-29T16:11:35;8.90;99.90
12025;DHT22;6073;53.230;10.444;2022-12-29T16:14:07;8.80;99.90
12025;DHT22;6073;53.230;10.444;2022-12-29T16:16:37;8.80;99.90
12025;DHT22;6073;53.230;10.444;2022-12-29T16:19:11;8.70;99.90
12025;DHT22;6073;53.230;10.444;2022-12-29T16:21:37;8.70;99.90
12025;DHT22;6073;53.230;10.444;2022-12-29T16:24:11;8.70;99.90
12025;DHT22;6073;53.230;10.444;2022-12-29T16:26:38;8.70;99.90
12025;DHT22;6073;53.230;10.444;2022-12-29T16:29:06;8.60;99.90
12025;DHT22;6073;53.230;10.444;2022-12-29T16:31:53;8.50;99.90
12025;DHT22;6073;53.230;10.444;2022-12-29T16:34:29;8.40;99.90
12025;DHT22;6073;53.230;10.444;2022-12-29T16:36:57;8.30;99.90
12025;DHT22;6073;53.230;10.444;2022-12-29T16:39:27;8.30;99.90
12025;DHT22;6073;53.230;10.444;2022-12-29T16:41:54;8.30;99.90
12025;DHT22;6073;53.230;10.444;2022-12-29T16:44:28;8.40;99.90
12025;DHT22;6073;53.230;10.444;2022-12-29T16:47:01;8.50;99.90
12025;DHT22;6073;53.230;10.444;2022-12-29T16:49:30;8.70;99.90
12025;DHT22;6073;53.230;10.444;2022-12-29T16:51:56;8.70;99.90
12025;DHT22;6073;53.230;10.444;2022-12-29T16:54:25;8.60;99.90
12025;DHT22;6073;53.230;10.444;2022-12-29T16:56:52;8.70;99.90
12025;DHT22;6073;53.230;10.444;2022-12-29T16:59:31;8.60;99.90
12025;DHT22;6073;53.230;10.444;2022-12-29T17:01:59;8.60;99.90
12025;DHT22;6073;53.230;10.444;2022-12-29T17:04:25;8.60;99.90
12025;DHT22;6073;53.230;10.444;2022-12-29T17:06:51;8.70;99.90
12025;DHT22;6073;53.230;10.444;2022-12-29T17:09:22;8.60;99.90
12025;DHT22;6073;53.230;10.444;2022-12-29T17:11:50;8.60;99.90
12025;DHT22;6073;53.230;10.444;2022-12-29T17:16:46;8.60;99.90
12025;DHT22;6073;53.230;10.444;2022-12-29T17:19:20;8.60;99.90
12025;DHT22;6073;53.230;10.444;2022-12-29T17:21:46;8.50;99.90
12025;DHT22;6073;53.230;10.444;2022-12-29T17:24:16;8.60;99.90
12025;DHT22;6073;53.230;10.444;2022-12-29T17:26:44;8.60;99.90
12025;DHT22;6073;53.230;10.444;2022-12-29T17:29:18;8.60;99.90
12025;DHT22;6073;53.230;10.444;2022-12-29T17:31:44;8.60;99.90
12025;DHT22;6073;53.230;10.444;2022-12-29T17:34:13;8.70;99.90
12025;DHT22;6073;53.230;10.444;2022-12-29T17:36:39;8.60;99.90
12025;DHT22;6073;53.230;10.444;2022-12-29T17:39:05;8.50;99.90
12025;DHT22;6073;53.230;10.444;2022-12-29T17:41:32;8.40;99.90
12025;DHT22;6073;53.230;10.444;2022-12-29T17:43:59;8.30;99.90
12025;DHT22;6073;53.230;10.444;2022-12-29T17:46:25;8.30;99.90
12025;DHT22;6073;53.230;10.444;2022-12-29T17:48:51;8.20;99.90
12025;DHT22;6073;53.230;10.444;2022-12-29T17:51:18;8.20;99.90
12025;DHT22;6073;53.230;10.444;2022-12-29T17:53:43;8.30;99.90
12025;DHT22;6073;53.230;10.444;2022-12-29T17:56:09;8.30;99.90
12025;DHT22;6073;53.230;10.444;2022-12-29T17:58:35;8.40;99.90
12025;DHT22;6073;53.230;10.444;2022-12-29T18:01:02;8.50;99.90